Time;durP1;ratioP1;P1;durP2;ratioP2;P2;SDS_P1;SDS_P2;PMS_P1;PMS_P2;Temp;Humidity;BMP_temperature;BMP_pressure;BME280_temperature;BME280_humidity;BME280_pressure;Samples;Min_cycle;Max_cycle;Signal;HPM_P1;HPM_P2
2024/03/28 00:00:42;;;;;;;;;;;;;;;19.81;46.76;97941.16;2058972;28;6217;-61
2024/03/28 00:01:42;;;;;;;;;;;;;;;19.81;46.76;97943.28;2052248;28;2255;-61
2024/03/28 00:02:42;;;;;;;;;;;;;;;19.80;46.76;97933.97;2050978;28;1721;-61
2024/03/28 00:03:43;;;;;;;;;;;;;;;19.81;46.74;97937.53;2052894;28;1715;-61
2024/03/28 00:04:43;;;;;;;;;;;;;;;19.80;46.92;97933.97;2059333;28;2223;-61
2024/03/28 00:05:51;;;;;;;;;;;;;;;19.81;46.87;97931.81;2060296;28;2205;-61
2024/03/28 00:06:51;;;;;;;;;;;;;;;19.80;46.82;97933.25;2054489;28;1612;-61
2024/03/28 00:07:52;;;;;;;;;;;;;;;19.80;46.83;97933.25;2059743;28;1673;-61
2024/03/28 00:08:52;;;;;;;;;;;;;;;19.81;46.85;97940.41;2060656;28;1652;-61
2024/03/28 00:09:52;;;;;;;;;;;;;;;19.79;46.95;97938.28;2060141;28;1597;-61
2024/03/28 00:10:54;;;;;;;;;;;;;;;19.79;46.83;97941.16;2059341;28;2079;-61
2024/03/28 00:11:54;;;;;;;;;;;;;;;19.80;46.96;97947.59;2058772;28;2356;-61
2024/03/28 00:12:54;;;;;;;;;;;;;;;19.79;46.87;97941.16;2060695;28;1666;-61
2024/03/28 00:13:55;;;;;;;;;;;;;;;19.80;46.81;97941.88;2068359;28;1667;-61
2024/03/28 00:14:55;;;;;;;;;;;;;;;19.80;46.81;97944.72;2075952;28;1678;-61
2024/03/28 00:15:59;;;;;;;;;;;;;;;19.78;46.85;97931.09;2066955;28;1624;-61
2024/03/28 00:17:00;;;;;;;;;;;;;;;19.78;46.87;97927.50;2061052;28;1910;-61
2024/03/28 00:18:00;;;;;;;;;;;;;;;19.78;46.85;97936.81;2060323;28;1736;-61
2024/03/28 00:19:00;;;;;;;;;;;;;;;19.79;46.90;97926.06;2060192;28;2088;-61
2024/03/28 00:20:01;;;;;;;;;;;;;;;19.79;46.94;97926.06;2049568;28;2350;-61
2024/03/28 00:21:02;;;;;;;;;;;;;;;19.78;46.88;97913.16;2052587;28;2053;-61
2024/03/28 00:22:02;;;;;;;;;;;;;;;19.78;46.84;97924.63;2051944;28;2349;-61
2024/03/28 00:23:03;;;;;;;;;;;;;;;19.78;46.85;97924.63;2050942;28;1722;-61
2024/03/28 00:24:04;;;;;;;;;;;;;;;19.78;46.95;97913.16;2053036;28;1636;-61
2024/03/28 00:25:05;;;;;;;;;;;;;;;19.78;46.89;97924.63;2050208;28;1714;-61
2024/03/28 00:26:07;;;;;;;;;;;;;;;19.78;46.97;97921.75;2068454;28;2127;-61
2024/03/28 00:27:08;;;;;;;;;;;;;;;19.77;46.90;97923.91;2067666;28;1690;-61
2024/03/28 00:28:08;;;;;;;;;;;;;;;19.78;46.90;97922.47;2060286;28;1638;-61
2024/03/28 00:29:09;;;;;;;;;;;;;;;19.79;47.04;97923.19;2067938;28;1866;-61
2024/03/28 00:30:09;;;;;;;;;;;;;;;19.78;46.96;97918.88;2059275;28;6132;-61
2024/03/28 00:31:10;;;;;;;;;;;;;;;19.78;46.90;97918.88;2050770;28;2098;-61
2024/03/28 00:32:10;;;;;;;;;;;;;;;19.77;46.91;97923.91;2066502;28;2446;-61
2024/03/28 00:33:10;;;;;;;;;;;;;;;19.77;47.00;97917.44;2071046;28;1736;-61
2024/03/28 00:34:11;;;;;;;;;;;;;;;19.77;47.04;97912.44;2053836;28;1696;-61
2024/03/28 00:35:11;;;;;;;;;;;;;;;19.77;46.97;97905.97;2063846;28;2284;-61
2024/03/28 00:36:12;;;;;;;;;;;;;;;19.77;47.13;97911.69;2069522;28;1679;-61
2024/03/28 00:37:12;;;;;;;;;;;;;;;19.76;46.91;97907.41;2052600;28;1902;-61
2024/03/28 00:38:13;;;;;;;;;;;;;;;19.76;47.06;97898.78;2067218;28;1952;-61
2024/03/28 00:39:13;;;;;;;;;;;;;;;19.77;47.08;97905.97;2067942;28;1700;-61
2024/03/28 00:40:14;;;;;;;;;;;;;;;19.76;46.95;97910.28;2066722;28;2815;-61
2024/03/28 00:41:15;;;;;;;;;;;;;;;19.76;46.90;97905.25;2076789;28;2077;-61
2024/03/28 00:42:15;;;;;;;;;;;;;;;19.76;47.09;97904.53;2060236;28;2324;-61
2024/03/28 00:43:16;;;;;;;;;;;;;;;19.76;46.99;97904.53;2059230;28;2324;-61
2024/03/28 00:44:16;;;;;;;;;;;;;;;19.75;47.05;97898.06;2076188;28;1619;-61
2024/03/28 00:45:17;;;;;;;;;;;;;;;19.76;46.97;97910.28;2064571;28;1965;-61
2024/03/28 00:46:17;;;;;;;;;;;;;;;19.76;46.96;97910.28;2052069;28;1698;-61
2024/03/28 00:47:17;;;;;;;;;;;;;;;19.74;47.03;97907.41;2051813;28;1753;-61
2024/03/28 00:48:18;;;;;;;;;;;;;;;19.75;47.07;97905.97;2059854;28;1622;-60
2024/03/28 00:49:19;;;;;;;;;;;;;;;19.75;46.93;97911.72;2057703;28;2088;-61
2024/03/28 00:50:19;;;;;;;;;;;;;;;19.75;46.93;97905.97;2057222;28;2246;-61
2024/03/28 00:51:19;;;;;;;;;;;;;;;19.75;46.89;97911.72;2075520;28;2120;-61
2024/03/28 00:52:20;;;;;;;;;;;;;;;19.75;46.93;97903.09;2067451;28;2307;-61
2024/03/28 00:53:20;;;;;;;;;;;;;;;19.75;47.04;97908.84;2053969;28;1762;-61
2024/03/28 00:54:20;;;;;;;;;;;;;;;19.75;46.90;97908.84;2048880;28;1869;-61
2024/03/28 00:55:21;;;;;;;;;;;;;;;19.74;47.04;97910.97;2059439;28;1628;-61
2024/03/28 00:56:21;;;;;;;;;;;;;;;19.73;47.09;97906.69;2060103;28;1669;-61
2024/03/28 00:57:22;;;;;;;;;;;;;;;19.74;46.90;97901.66;2052405;28;1903;-61
2024/03/28 00:58:22;;;;;;;;;;;;;;;19.73;47.07;97900.22;2052113;28;1708;-61
2024/03/28 00:59:22;;;;;;;;;;;;;;;19.73;46.97;97903.09;2052486;28;2370;-61
2024/03/28 01:00:23;;;;;;;;;;;;;;;19.73;46.99;97898.06;2060203;28;6133;-61
2024/03/28 01:01:23;;;;;;;;;;;;;;;19.74;47.05;97893.03;2060380;28;2090;-61
2024/03/28 01:02:23;;;;;;;;;;;;;;;19.74;47.09;97895.91;2058593;28;2293;-61
2024/03/28 01:03:24;;;;;;;;;;;;;;;19.74;47.08;97884.44;2052599;28;1655;-61
2024/03/28 01:04:24;;;;;;;;;;;;;;;19.74;46.96;97895.91;2056557;28;1710;-61
2024/03/28 01:05:25;;;;;;;;;;;;;;;19.73;46.86;97895.19;2056923;28;2333;-61
2024/03/28 01:06:25;;;;;;;;;;;;;;;19.74;47.00;97884.44;2050843;28;1712;-61
2024/03/28 01:07:26;;;;;;;;;;;;;;;19.74;46.92;97884.44;2059817;28;1828;-61
2024/03/28 01:08:26;;;;;;;;;;;;;;;19.73;46.96;97883.00;2059829;28;1722;-61
2024/03/28 01:09:27;;;;;;;;;;;;;;;19.73;46.93;97888.75;2051101;28;2606;-61
2024/03/28 01:10:27;;;;;;;;;;;;;;;19.72;46.99;97882.25;2056928;28;1724;-61
2024/03/28 01:11:27;;;;;;;;;;;;;;;19.72;46.99;97882.25;2058401;28;2262;-61
2024/03/28 01:12:28;;;;;;;;;;;;;;;19.73;46.95;97880.13;2051787;28;1688;-61
2024/03/28 01:13:28;;;;;;;;;;;;;;;19.74;46.95;97878.69;2052870;28;2108;-61
2024/03/28 01:14:29;;;;;;;;;;;;;;;19.73;46.79;97888.75;2052771;28;1635;-61
2024/03/28 01:15:30;;;;;;;;;;;;;;;19.73;46.91;97877.25;2052868;28;1624;-61
2024/03/28 01:16:31;;;;;;;;;;;;;;;19.73;47.01;97872.22;2070944;28;1600;-61
2024/03/28 01:17:31;;;;;;;;;;;;;;;19.74;46.99;97878.69;2066646;28;1979;-61
2024/03/28 01:18:31;;;;;;;;;;;;;;;19.72;46.73;97873.66;2052558;28;1860;-61
2024/03/28 01:19:32;;;;;;;;;;;;;;;19.73;46.76;97877.97;2053206;28;1748;-61
2024/03/28 01:20:33;;;;;;;;;;;;;;;19.72;46.84;97870.78;2051417;28;2310;-61
2024/03/28 01:21:33;;;;;;;;;;;;;;;19.73;46.85;97868.66;2050471;28;2239;-61
2024/03/28 01:22:33;;;;;;;;;;;;;;;19.72;46.91;97876.53;2049873;28;1800;-61
2024/03/28 01:23:35;;;;;;;;;;;;;;;19.73;47.07;97871.53;2060426;28;2362;-61
2024/03/28 01:24:35;;;;;;;;;;;;;;;19.73;46.97;97877.25;2058091;28;1661;-61
2024/03/28 01:25:35;;;;;;;;;;;;;;;19.72;46.93;97870.78;2051721;28;1615;-61
2024/03/28 01:26:36;;;;;;;;;;;;;;;19.72;46.89;97875.81;2060503;28;1741;-61
2024/03/28 01:27:40;;;;;;;;;;;;;;;19.73;46.99;97868.66;2058895;28;1729;-60
2024/03/28 01:28:40;;;;;;;;;;;;;;;19.71;47.03;97868.66;2060743;28;1854;-61
2024/03/28 01:29:40;;;;;;;;;;;;;;;19.71;46.96;97868.66;2059395;28;1780;-61
2024/03/28 01:30:41;;;;;;;;;;;;;;;19.71;46.91;97868.66;2059078;28;6245;-61
2024/03/28 01:31:41;;;;;;;;;;;;;;;19.70;46.97;97867.19;2059194;28;2279;-61
2024/03/28 01:32:42;;;;;;;;;;;;;;;19.70;47.00;97870.06;2061560;28;2069;-61
2024/03/28 01:33:42;;;;;;;;;;;;;;;19.70;47.02;97861.44;2055605;28;1691;-61
2024/03/28 01:34:43;;;;;;;;;;;;;;;19.70;46.93;97862.19;2053567;28;1682;-61
2024/03/28 01:35:43;;;;;;;;;;;;;;;19.70;46.94;97849.97;2066132;28;2276;-61
2024/03/28 01:36:43;;;;;;;;;;;;;;;19.69;47.03;97851.41;2070316;28;1664;-61
2024/03/28 01:37:44;;;;;;;;;;;;;;;19.69;46.99;97854.28;2061159;28;2257;-61
2024/03/28 01:38:44;;;;;;;;;;;;;;;19.70;47.08;97855.72;2076141;28;2278;-61
2024/03/28 01:39:47;;;;;;;;;;;;;;;19.69;47.00;97855.00;2068011;28;1827;-61
2024/03/28 01:40:47;;;;;;;;;;;;;;;19.69;46.88;97849.25;2069735;28;1799;-61
2024/03/28 01:41:51;;;;;;;;;;;;;;;19.68;46.93;97847.81;2067952;28;1652;-61
2024/03/28 01:42:51;;;;;;;;;;;;;;;19.69;47.09;97842.81;2068657;28;1661;-61
2024/03/28 01:43:51;;;;;;;;;;;;;;;19.69;47.03;97837.06;2069388;28;1659;-61
2024/03/28 01:44:53;;;;;;;;;;;;;;;19.69;46.96;97837.06;2053213;28;2172;-61
2024/03/28 01:45:53;;;;;;;;;;;;;;;19.69;47.05;97831.31;2051552;28;2294;-61
2024/03/28 01:46:54;;;;;;;;;;;;;;;19.67;47.01;97826.97;2052708;28;1791;-61
2024/03/28 01:47:54;;;;;;;;;;;;;;;19.68;46.96;97813.38;2062499;28;1662;-61
2024/03/28 01:48:55;;;;;;;;;;;;;;;19.67;46.90;97812.63;2060367;28;1634;-61
2024/03/28 01:49:56;;;;;;;;;;;;;;;19.67;46.96;97809.75;2060545;28;2158;-61
2024/03/28 01:50:57;;;;;;;;;;;;;;;19.67;46.96;97806.88;2065208;28;2295;-61
2024/03/28 01:51:58;;;;;;;;;;;;;;;19.67;47.09;97806.88;2078225;28;1643;-61
2024/03/28 01:52:59;;;;;;;;;;;;;;;19.67;47.07;97806.88;2068867;28;2181;-61
2024/03/28 01:53:59;;;;;;;;;;;;;;;19.66;47.09;97811.19;2061238;28;1661;-61
2024/03/28 01:55:00;;;;;;;;;;;;;;;19.66;47.06;97814.06;2061865;28;1716;-61
2024/03/28 01:56:00;;;;;;;;;;;;;;;19.67;47.09;97812.63;2051355;28;2231;-61
2024/03/28 01:57:01;;;;;;;;;;;;;;;19.67;47.08;97812.63;2060152;28;1678;-61
2024/03/28 01:58:01;;;;;;;;;;;;;;;19.67;47.14;97812.63;2057529;28;2088;-61
2024/03/28 01:59:03;;;;;;;;;;;;;;;19.67;47.00;97809.03;2061443;28;1687;-61
2024/03/28 02:00:03;;;;;;;;;;;;;;;19.67;46.83;97815.50;2060135;28;6166;-61
2024/03/28 02:01:04;;;;;;;;;;;;;;;19.67;47.06;97814.78;2068967;28;2163;-61
2024/03/28 02:02:06;;;;;;;;;;;;;;;19.66;46.99;97811.19;2067976;28;1915;-61
2024/03/28 02:03:07;;;;;;;;;;;;;;;19.65;47.05;97815.50;2053349;28;2140;-61
2024/03/28 02:04:07;;;;;;;;;;;;;;;19.66;47.06;97808.34;2061682;28;1728;-61
2024/03/28 02:05:08;;;;;;;;;;;;;;;19.67;47.06;97803.31;2060850;28;1697;-61
2024/03/28 02:06:08;;;;;;;;;;;;;;;19.66;47.06;97799.72;2054381;28;2466;-61
2024/03/28 02:07:09;;;;;;;;;;;;;;;19.66;47.05;97799.00;2054616;28;1980;-61
2024/03/28 02:08:09;;;;;;;;;;;;;;;19.66;47.05;97804.75;2053653;28;2242;-61
2024/03/28 02:09:10;;;;;;;;;;;;;;;19.66;47.01;97805.47;2061472;28;1685;-61
2024/03/28 02:10:10;;;;;;;;;;;;;;;19.65;47.05;97804.03;2069428;28;2430;-61
2024/03/28 02:11:11;;;;;;;;;;;;;;;19.65;46.99;97798.28;2067465;28;2094;-61
2024/03/28 02:12:11;;;;;;;;;;;;;;;19.65;47.02;97804.03;2053489;28;2104;-61
2024/03/28 02:13:12;;;;;;;;;;;;;;;19.65;47.18;97791.81;2062137;28;2021;-61
2024/03/28 02:14:13;;;;;;;;;;;;;;;19.65;47.00;97795.44;2060481;28;1934;-61
2024/03/28 02:15:13;;;;;;;;;;;;;;;19.64;46.99;97791.09;2063660;28;1602;-61
2024/03/28 02:16:13;;;;;;;;;;;;;;;19.65;47.08;97789.69;2050961;28;2152;-61
2024/03/28 02:17:14;;;;;;;;;;;;;;;19.64;47.03;97796.84;2060085;28;2280;-60
2024/03/28 02:18:19;;;;;;;;;;;;;;;19.64;47.08;97788.22;2059950;28;1641;-61
2024/03/28 02:19:19;;;;;;;;;;;;;;;19.64;47.07;97784.66;2055030;28;1702;-61
2024/03/28 02:20:20;;;;;;;;;;;;;;;19.63;47.11;97778.19;2053647;28;1725;-61
2024/03/28 02:21:20;;;;;;;;;;;;;;;19.63;47.02;97783.94;2053163;28;1980;-61
2024/03/28 02:22:21;;;;;;;;;;;;;;;19.63;47.08;97778.19;2061433;28;1637;-61
2024/03/28 02:23:22;;;;;;;;;;;;;;;19.64;47.06;97793.97;2068241;28;1917;-61
2024/03/28 02:24:22;;;;;;;;;;;;;;;19.63;47.10;97789.69;2069086;28;2335;-61
2024/03/28 02:25:23;;;;;;;;;;;;;;;19.64;47.08;97790.41;2051934;28;1650;-61
2024/03/28 02:26:24;;;;;;;;;;;;;;;19.63;47.06;97789.69;2068357;28;2279;-61
2024/03/28 02:27:24;;;;;;;;;;;;;;;19.64;46.98;97790.41;2066407;28;1610;-61
2024/03/28 02:28:25;;;;;;;;;;;;;;;19.63;47.05;97789.69;2058628;28;2543;-61
2024/03/28 02:29:25;;;;;;;;;;;;;;;19.63;47.04;97789.69;2051081;28;1816;-61
2024/03/28 02:30:26;;;;;;;;;;;;;;;19.62;46.93;97788.22;2056995;28;6274;-61
2024/03/28 02:31:26;;;;;;;;;;;;;;;19.62;47.00;97782.50;2059961;28;1606;-61
2024/03/28 02:32:27;;;;;;;;;;;;;;;19.62;46.92;97782.50;2053288;28;1663;-61
2024/03/28 02:33:27;;;;;;;;;;;;;;;19.62;47.09;97781.78;2062818;28;1710;-61
2024/03/28 02:34:27;;;;;;;;;;;;;;;19.62;47.04;97788.22;2057886;28;2356;-61
2024/03/28 02:35:28;;;;;;;;;;;;;;;19.62;47.01;97785.34;2052714;28;1617;-61
2024/03/28 02:36:28;;;;;;;;;;;;;;;19.62;47.07;97793.97;2061068;28;2288;-61
2024/03/28 02:37:29;;;;;;;;;;;;;;;19.63;47.04;97789.69;2060836;28;1980;-61
2024/03/28 02:38:30;;;;;;;;;;;;;;;19.63;47.06;97791.81;2049629;28;2227;-61
2024/03/28 02:39:30;;;;;;;;;;;;;;;19.62;47.05;97788.22;2068796;28;2727;-61
2024/03/28 02:40:30;;;;;;;;;;;;;;;19.62;47.05;97793.25;2065743;28;1655;-61
2024/03/28 02:41:32;;;;;;;;;;;;;;;19.62;47.03;97802.59;2053647;28;1545;-61
2024/03/28 02:42:32;;;;;;;;;;;;;;;19.61;47.01;97801.16;2059495;28;1712;-61
2024/03/28 02:43:32;;;;;;;;;;;;;;;19.61;47.05;97809.78;2058970;28;1733;-61
2024/03/28 02:44:33;;;;;;;;;;;;;;;19.62;47.11;97810.47;2052620;28;1728;-61
2024/03/28 02:45:33;;;;;;;;;;;;;;;19.62;47.07;97810.47;2052445;28;1623;-61
2024/03/28 02:46:34;;;;;;;;;;;;;;;19.61;47.08;97809.78;2060725;28;2081;-61
2024/03/28 02:47:36;;;;;;;;;;;;;;;19.60;47.04;97802.56;2058969;28;2271;-61
2024/03/28 02:48:36;;;;;;;;;;;;;;;19.61;47.04;97815.50;2053021;28;2231;-61
2024/03/28 02:49:37;;;;;;;;;;;;;;;19.60;47.06;97814.06;2070545;28;1639;-61
2024/03/28 02:50:37;;;;;;;;;;;;;;;19.61;46.99;97809.06;2069218;28;1663;-61
2024/03/28 02:51:38;;;;;;;;;;;;;;;19.60;47.09;97814.06;2051280;28;2243;-62
2024/03/28 02:52:39;;;;;;;;;;;;;;;19.61;47.03;97814.78;2057190;28;2032;-61
2024/03/28 02:53:39;;;;;;;;;;;;;;;19.60;47.07;97808.31;2062095;28;1571;-61
2024/03/28 02:54:40;;;;;;;;;;;;;;;19.60;47.00;97796.84;2070016;28;2346;-61
2024/03/28 02:55:40;;;;;;;;;;;;;;;19.59;46.94;97798.28;2070245;28;1688;-61
2024/03/28 02:56:40;;;;;;;;;;;;;;;19.59;46.97;97801.16;2051361;28;2029;-61
2024/03/28 02:57:41;;;;;;;;;;;;;;;19.59;47.03;97801.16;2051517;28;1993;-61
2024/03/28 02:58:41;;;;;;;;;;;;;;;19.59;47.07;97800.44;2057538;28;2087;-61
2024/03/28 02:59:41;;;;;;;;;;;;;;;19.60;47.11;97796.13;2059919;28;1632;-61
2024/03/28 03:00:42;;;;;;;;;;;;;;;19.58;47.16;97811.19;2050519;28;6571;-61
2024/03/28 03:01:42;;;;;;;;;;;;;;;19.58;47.13;97802.56;2069788;28;1668;-61
2024/03/28 03:02:43;;;;;;;;;;;;;;;19.58;47.09;97811.19;2068033;28;1743;-61
2024/03/28 03:03:43;;;;;;;;;;;;;;;19.58;47.12;97799.72;2060216;28;1649;-61
2024/03/28 03:04:43;;;;;;;;;;;;;;;19.59;47.12;97806.19;2050881;28;2147;-61
2024/03/28 03:05:48;;;;;;;;;;;;;;;19.59;47.09;97800.44;2058446;28;1793;-61
2024/03/28 03:06:48;;;;;;;;;;;;;;;19.58;46.95;97805.44;2058954;28;2254;-61
2024/03/28 03:07:48;;;;;;;;;;;;;;;19.58;46.85;97793.25;2059535;28;2308;-61
2024/03/28 03:08:49;;;;;;;;;;;;;;;19.58;47.14;97804.72;2076409;28;2368;-61
2024/03/28 03:09:49;;;;;;;;;;;;;;;19.58;47.06;97808.31;2068572;28;1636;-61
2024/03/28 03:10:49;;;;;;;;;;;;;;;19.58;47.11;97810.47;2059344;28;2218;-61
2024/03/28 03:11:50;;;;;;;;;;;;;;;19.57;47.09;97798.28;2060514;28;1674;-61
2024/03/28 03:12:50;;;;;;;;;;;;;;;19.57;47.10;97803.31;2052152;28;1866;-61
2024/03/28 03:13:51;;;;;;;;;;;;;;;19.56;46.98;97799.72;2057666;28;1732;-61
2024/03/28 03:14:52;;;;;;;;;;;;;;;19.58;47.13;97801.88;2060537;28;2099;-61
2024/03/28 03:15:52;;;;;;;;;;;;;;;19.57;47.13;97801.16;2051325;28;2161;-61
2024/03/28 03:16:53;;;;;;;;;;;;;;;19.56;47.12;97802.59;2053108;28;2205;-61
2024/03/28 03:17:53;;;;;;;;;;;;;;;19.57;47.10;97809.75;2051806;28;1914;-61
2024/03/28 03:18:54;;;;;;;;;;;;;;;19.56;47.04;97808.34;2059711;28;2419;-61
2024/03/28 03:19:58;;;;;;;;;;;;;;;19.56;47.12;97808.34;2054132;28;1639;-61
2024/03/28 03:21:00;;;;;;;;;;;;;;;19.57;47.11;97809.03;2060174;28;1851;-61
2024/03/28 03:22:01;;;;;;;;;;;;;;;19.56;47.19;97808.34;2059659;28;2351;-61
2024/03/28 03:23:04;;;;;;;;;;;;;;;19.56;47.13;97813.34;2067240;28;2495;-61
2024/03/28 03:24:05;;;;;;;;;;;;;;;19.56;47.11;97811.22;2066961;28;1632;-61
2024/03/28 03:25:13;;;;;;;;;;;;;;;19.56;47.13;97810.47;2052450;28;1655;-61
2024/03/28 03:26:20;;;;;;;;;;;;;;;19.56;47.13;97810.47;2054261;28;1663;-61
2024/03/28 03:27:20;;;;;;;;;;;;;;;19.56;47.09;97799.00;2054512;28;1762;-61
2024/03/28 03:34:56;;;;;;;;;;;;;;;19.54;46.98;97788.25;2061715;28;1926;-61
2024/03/28 03:35:56;;;;;;;;;;;;;;;19.54;47.10;97785.38;2052840;28;1714;-61
2024/03/28 03:36:56;;;;;;;;;;;;;;;19.54;47.03;97793.97;2060018;28;2073;-61
2024/03/28 03:37:57;;;;;;;;;;;;;;;19.54;46.97;97790.38;2057110;28;2179;-61
2024/03/28 03:38:57;;;;;;;;;;;;;;;19.53;47.00;97795.41;2059271;28;2174;-61
2024/03/28 03:40:05;;;;;;;;;;;;;;;19.52;47.25;97785.38;2052272;28;1745;-61
2024/03/28 03:41:05;;;;;;;;;;;;;;;19.54;47.05;97793.97;2053868;28;1674;-61
2024/03/28 03:42:07;;;;;;;;;;;;;;;19.54;47.10;97793.25;2060666;28;1900;-61
2024/03/28 03:43:08;;;;;;;;;;;;;;;19.53;47.04;97792.53;2061272;28;1587;-61
2024/03/28 03:44:08;;;;;;;;;;;;;;;19.52;47.07;97802.59;2059545;28;2153;-61
2024/03/28 03:45:09;;;;;;;;;;;;;;;19.54;47.12;97810.47;2077419;28;1667;-64
2024/03/28 03:46:09;;;;;;;;;;;;;;;19.54;47.10;97811.19;2076319;28;1728;-61
2024/03/28 03:47:09;;;;;;;;;;;;;;;19.55;47.09;97814.78;2060477;28;1926;-64
2024/03/28 03:48:10;;;;;;;;;;;;;;;19.54;47.11;97816.94;2051753;28;1727;-62
2024/03/28 03:49:11;;;;;;;;;;;;;;;19.54;47.07;97814.06;2066777;28;2260;-64
2024/03/28 03:50:11;;;;;;;;;;;;;;;19.55;47.11;97809.03;2067362;28;1694;-64
2024/03/28 03:51:12;;;;;;;;;;;;;;;19.56;46.94;97810.47;2057474;28;2377;-64
2024/03/28 03:52:14;;;;;;;;;;;;;;;19.55;47.05;97792.53;2066990;28;2355;-64
2024/03/28 03:53:14;;;;;;;;;;;;;;;19.56;47.07;97796.13;2066481;28;2272;-63
2024/03/28 03:54:15;;;;;;;;;;;;;;;19.56;47.04;97796.84;2057680;28;2088;-64
2024/03/28 03:55:15;;;;;;;;;;;;;;;19.55;46.96;97789.66;2060782;28;1670;-64
2024/03/28 03:56:15;;;;;;;;;;;;;;;19.56;46.99;97802.59;2051442;28;2463;-64
2024/03/28 03:57:16;;;;;;;;;;;;;;;19.56;46.92;97794.00;2051960;28;1999;-64
2024/03/28 03:58:17;;;;;;;;;;;;;;;19.57;46.98;97798.28;2052168;28;2234;-64
2024/03/28 03:59:17;;;;;;;;;;;;;;;19.58;46.86;97802.56;2060636;28;1701;-64
2024/03/28 04:00:17;;;;;;;;;;;;;;;19.59;46.86;97798.28;2060816;28;6349;-64
2024/03/28 04:01:18;;;;;;;;;;;;;;;19.59;46.79;97797.56;2050622;28;2278;-64
2024/03/28 04:02:18;;;;;;;;;;;;;;;19.59;46.72;97792.53;2061104;28;1637;-64
2024/03/28 04:03:19;;;;;;;;;;;;;;;19.60;46.70;97790.38;2059461;28;1736;-64
2024/03/28 04:04:19;;;;;;;;;;;;;;;19.60;46.72;97788.22;2053269;28;2351;-64
2024/03/28 04:05:19;;;;;;;;;;;;;;;19.61;46.73;97781.06;2060955;28;1695;-64
2024/03/28 04:06:20;;;;;;;;;;;;;;;19.60;46.71;97791.09;2060117;28;1646;-64
2024/03/28 04:07:21;;;;;;;;;;;;;;;19.62;46.83;97790.38;2049546;28;2168;-64
2024/03/28 04:08:21;;;;;;;;;;;;;;;19.62;46.70;97791.09;2059924;28;1733;-64
2024/03/28 04:09:22;;;;;;;;;;;;;;;19.63;46.73;97794.69;2060202;28;2176;-64
2024/03/28 04:10:23;;;;;;;;;;;;;;;19.62;46.74;97793.97;2060709;28;2402;-64
2024/03/28 04:11:23;;;;;;;;;;;;;;;19.62;46.74;97805.44;2057341;28;2395;-64
2024/03/28 04:12:24;;;;;;;;;;;;;;;19.62;46.63;97799.00;2056771;28;1711;-64
2024/03/28 04:13:24;;;;;;;;;;;;;;;19.63;46.77;97797.56;2059889;28;1603;-64
2024/03/28 04:14:25;;;;;;;;;;;;;;;19.62;46.62;97799.00;2061420;28;1775;-64
2024/03/28 04:15:25;;;;;;;;;;;;;;;19.62;46.76;97793.25;2052444;28;1679;-64
2024/03/28 04:16:26;;;;;;;;;;;;;;;19.62;46.86;97805.44;2060289;28;2087;-64
2024/03/28 04:17:26;;;;;;;;;;;;;;;19.63;46.84;97800.41;2060667;28;2532;-64
2024/03/28 04:18:26;;;;;;;;;;;;;;;19.62;46.82;97793.97;2060450;28;1571;-64
2024/03/28 04:19:27;;;;;;;;;;;;;;;19.61;46.82;97795.41;2050991;28;1717;-64
2024/03/28 04:20:27;;;;;;;;;;;;;;;19.62;46.74;97799.72;2059051;28;1689;-64
2024/03/28 04:21:31;;;;;;;;;;;;;;;19.62;46.87;97793.97;2059781;28;2452;-64
2024/03/28 04:22:31;;;;;;;;;;;;;;;19.62;46.88;97799.72;2052435;28;2428;-64
2024/03/28 04:23:31;;;;;;;;;;;;;;;19.62;46.93;97796.84;2060163;28;2265;-64
2024/03/28 04:24:32;;;;;;;;;;;;;;;19.62;46.87;97788.22;2058878;28;1579;-64
2024/03/28 04:25:33;;;;;;;;;;;;;;;19.62;46.95;97782.50;2050853;28;1606;-64
2024/03/28 04:26:33;;;;;;;;;;;;;;;19.63;46.85;97788.94;2052543;28;2057;-64
2024/03/28 04:27:33;;;;;;;;;;;;;;;19.62;46.82;97787.53;2060891;28;1831;-64
2024/03/28 04:28:34;;;;;;;;;;;;;;;19.63;46.91;97789.69;2060728;28;1617;-64
2024/03/28 04:29:34;;;;;;;;;;;;;;;19.62;46.94;97793.97;2052932;28;2316;-64
2024/03/28 04:30:38;;;;;;;;;;;;;;;19.61;46.88;97798.28;2059447;28;6940;-64
2024/03/28 04:31:38;;;;;;;;;;;;;;;19.62;46.97;97793.97;2057607;28;2290;-64
2024/03/28 04:32:39;;;;;;;;;;;;;;;19.62;46.96;97804.75;2053381;28;1579;-64
2024/03/28 04:33:39;;;;;;;;;;;;;;;19.62;46.90;97804.75;2060111;28;1636;-64
2024/03/28 04:34:40;;;;;;;;;;;;;;;19.62;46.90;97807.59;2059732;28;2264;-64
2024/03/28 04:35:42;;;;;;;;;;;;;;;19.61;46.94;97809.78;2051717;28;1542;-64
2024/03/28 04:36:43;;;;;;;;;;;;;;;19.62;47.03;97807.59;2056900;28;2353;-64
2024/03/28 04:37:43;;;;;;;;;;;;;;;19.61;46.98;97809.78;2059754;28;2261;-64
2024/03/28 04:38:44;;;;;;;;;;;;;;;19.62;46.98;97796.84;2051794;28;1597;-64
2024/03/28 04:39:44;;;;;;;;;;;;;;;19.61;46.88;97804.03;2057475;28;1671;-64
2024/03/28 04:40:45;;;;;;;;;;;;;;;19.62;47.00;97811.19;2058534;28;1736;-64
2024/03/28 04:41:45;;;;;;;;;;;;;;;19.62;47.02;97804.75;2049996;28;2418;-64
2024/03/28 04:42:50;;;;;;;;;;;;;;;19.61;46.90;97817.66;2067287;28;1716;-64
2024/03/28 04:43:51;;;;;;;;;;;;;;;19.61;46.95;97809.78;2068246;28;1801;-64
2024/03/28 04:44:51;;;;;;;;;;;;;;;19.61;46.99;97815.50;2058225;28;1618;-64
2024/03/28 04:45:52;;;;;;;;;;;;;;;19.61;46.90;97812.63;2059946;28;1630;-64
2024/03/28 04:46:52;;;;;;;;;;;;;;;19.61;46.98;97815.50;2050570;28;2050;-64
2024/03/28 04:47:53;;;;;;;;;;;;;;;19.61;46.88;97821.25;2051365;28;2383;-64
2024/03/28 04:48:53;;;;;;;;;;;;;;;19.61;46.92;97827.00;2051481;28;2250;-64
2024/03/28 04:49:53;;;;;;;;;;;;;;;19.61;46.89;97829.16;2061266;28;1662;-64
2024/03/28 04:50:54;;;;;;;;;;;;;;;19.60;46.88;97828.41;2058632;28;2125;-64
2024/03/28 04:51:54;;;;;;;;;;;;;;;19.61;46.92;97821.25;2048719;28;2393;-64
2024/03/28 04:52:55;;;;;;;;;;;;;;;19.61;46.98;97826.28;2051827;28;1685;-64
2024/03/28 04:53:55;;;;;;;;;;;;;;;19.60;47.00;97831.28;2060241;28;1676;-64
2024/03/28 04:54:55;;;;;;;;;;;;;;;19.61;46.92;97832.72;2058103;28;1698;-64
2024/03/28 04:55:56;;;;;;;;;;;;;;;19.61;46.92;97829.16;2050654;28;1795;-64
2024/03/28 04:56:56;;;;;;;;;;;;;;;19.60;46.84;97831.28;2058732;28;2135;-64
2024/03/28 04:57:57;;;;;;;;;;;;;;;19.60;46.92;97825.53;2059992;28;1989;-64
2024/03/28 04:58:57;;;;;;;;;;;;;;;19.60;46.91;97825.53;2052867;28;2065;-64
2024/03/28 04:59:57;;;;;;;;;;;;;;;19.61;46.87;97827.00;2059877;28;1650;-64
2024/03/28 05:00:58;;;;;;;;;;;;;;;19.60;46.88;97828.41;2058655;28;6267;-64
2024/03/28 05:01:58;;;;;;;;;;;;;;;19.61;46.82;97826.28;2053216;28;1666;-64
2024/03/28 05:02:58;;;;;;;;;;;;;;;19.60;46.73;97825.53;2067628;28;1862;-64
2024/03/28 05:03:59;;;;;;;;;;;;;;;19.63;46.85;97834.88;2067150;28;1620;-64
2024/03/28 05:04:59;;;;;;;;;;;;;;;19.63;46.89;97835.59;2051321;28;1974;-64
2024/03/28 05:06:00;;;;;;;;;;;;;;;19.62;46.76;97834.16;2052916;28;1638;-64
2024/03/28 05:07:00;;;;;;;;;;;;;;;19.62;46.76;97834.16;2059769;28;2312;-64
2024/03/28 05:08:01;;;;;;;;;;;;;;;19.63;46.65;97838.47;2058619;28;2319;-64
2024/03/28 05:09:01;;;;;;;;;;;;;;;19.65;46.86;97846.34;2053068;28;1614;-64
2024/03/28 05:10:04;;;;;;;;;;;;;;;19.64;46.88;97837.03;2052253;28;2309;-64
2024/03/28 05:11:04;;;;;;;;;;;;;;;19.64;46.88;97825.53;2051627;28;1930;-64
2024/03/28 05:12:05;;;;;;;;;;;;;;;19.65;46.89;97844.22;2066120;28;2339;-64
2024/03/28 05:13:05;;;;;;;;;;;;;;;19.66;46.68;97842.78;2067959;28;1601;-64
2024/03/28 05:14:06;;;;;;;;;;;;;;;19.67;46.75;97834.88;2069152;28;1767;-64
2024/03/28 05:15:06;;;;;;;;;;;;;;;19.66;46.85;97839.19;2064097;28;1775;-64
2024/03/28 05:16:08;;;;;;;;;;;;;;;19.66;46.85;97842.78;2052376;28;1569;-64
2024/03/28 05:17:09;;;;;;;;;;;;;;;19.66;46.77;97844.94;2056452;28;2261;-64
2024/03/28 05:18:09;;;;;;;;;;;;;;;19.66;46.94;97845.66;2059616;28;2270;-64
2024/03/28 05:19:10;;;;;;;;;;;;;;;19.67;46.64;97852.09;2054861;28;1570;-64
2024/03/28 05:20:12;;;;;;;;;;;;;;;19.66;46.72;97851.38;2051521;28;2393;-64
2024/03/28 05:21:12;;;;;;;;;;;;;;;19.67;46.79;97867.16;2067404;28;1765;-64
2024/03/28 05:22:13;;;;;;;;;;;;;;;19.66;46.82;97862.88;2065803;28;1603;-64
2024/03/28 05:23:13;;;;;;;;;;;;;;;19.66;46.71;97862.88;2059584;28;2337;-64
2024/03/28 05:24:13;;;;;;;;;;;;;;;19.66;46.78;97865.75;2060049;28;1669;-64
2024/03/28 05:25:14;;;;;;;;;;;;;;;19.67;46.72;97880.81;2066888;28;2102;-64
2024/03/28 05:26:15;;;;;;;;;;;;;;;19.66;46.73;97880.09;2057982;28;1580;-64
2024/03/28 05:27:15;;;;;;;;;;;;;;;19.67;46.71;97887.25;2059757;28;1569;-64